Hartville, Ohio
Current Conditions -  °F | °C
As of 6:51 PM on Thursday 27 Nov 2014 (Local Time) from KCAK Reporting Station
Light Snow Light Snow  
Wind Chill: 21°   Ceiling: 1000
Heat Index: 30°   Visibility: 4mi
Dew Point: 25°   Wind: 10mph
Humidity: 82%   Direction: 260°W
Pressure: 30.19"   Gusts: NA
Location:  40.96°N, 81.33°W
Report Text: KCAK 272351Z 26009KT 4SM -SN BR BKN010 BKN035 OVC050 M01/M04 A3019 RMK AO2 SLP236 60001 P0001 T10111039 10000 21017 51016
Loading
Personal Weather Stations






























Interactive Weather Map New forecast layout! Learn more

10-Day Weather Forecast

Advertisements
Track Severe Weather on mobile